createdAt,value
2022-11-20T00:02:23.146Z,20.80
2022-11-20T00:04:49.429Z,22.67
2022-11-20T00:07:15.347Z,22.92
2022-11-20T00:09:41.150Z,23.50
2022-11-20T00:12:06.993Z,20.08
2022-11-20T00:14:32.699Z,23.05
2022-11-20T00:16:58.461Z,27.40
2022-11-20T00:19:24.131Z,26.20
2022-11-20T00:21:51.628Z,22.35
2022-11-20T00:24:17.444Z,21.45
2022-11-20T00:26:43.148Z,24.20
2022-11-20T00:29:10.433Z,26.23
2022-11-20T00:31:36.108Z,21.92
2022-11-20T00:34:01.869Z,23.48
2022-11-20T00:36:28.961Z,24.35
2022-11-20T00:38:58.671Z,22.85
2022-11-20T00:41:25.844Z,19.08
2022-11-20T00:43:53.188Z,24.58
2022-11-20T00:46:21.685Z,24.55
2022-11-20T00:48:47.956Z,23.33
2022-11-20T00:51:16.020Z,20.60
2022-11-20T00:53:42.267Z,19.83
2022-11-20T00:56:11.534Z,20.52
2022-11-20T00:58:38.800Z,19.10
2022-11-20T01:01:04.623Z,21.52
2022-11-20T01:03:38.994Z,22.98
2022-11-20T01:06:16.202Z,22.85
2022-11-20T01:08:42.309Z,22.50
2022-11-20T01:11:11.704Z,23.10
2022-11-20T01:13:37.556Z,22.02
2022-11-20T01:16:15.341Z,22.90
2022-11-20T01:18:44.311Z,20.25
2022-11-20T01:21:16.570Z,18.35
2022-11-20T01:23:43.741Z,23.08
2022-11-20T01:26:12.025Z,24.75
2022-11-20T01:28:39.673Z,23.33
2022-11-20T01:31:20.236Z,22.70
2022-11-20T01:33:47.726Z,22.13
2022-11-20T01:36:14.658Z,22.00
2022-11-20T01:38:40.434Z,26.33
2022-11-20T01:41:07.549Z,21.48
2022-11-20T01:43:34.345Z,23.27
2022-11-20T01:46:18.408Z,25.33
2022-11-20T01:49:11.114Z,21.40
2022-11-20T01:51:45.022Z,21.73
2022-11-20T01:59:12.323Z,22.63
2022-11-20T02:01:39.406Z,26.23
2022-11-20T02:04:07.186Z,22.75
2022-11-20T02:09:04.542Z,20.92
2022-11-20T02:11:30.986Z,23.48
2022-11-20T02:13:57.218Z,22.73
2022-11-20T02:16:39.068Z,23.27
2022-11-20T02:19:12.985Z,24.33
2022-11-20T02:24:15.714Z,21.48
2022-11-20T02:26:51.331Z,23.23
2022-11-20T02:29:22.989Z,26.33
2022-11-20T02:31:48.901Z,21.73
2022-11-20T02:34:14.585Z,26.20
2022-11-20T02:36:41.753Z,21.10
2022-11-20T02:39:09.203Z,23.20
2022-11-20T02:41:37.328Z,23.63
2022-11-20T02:44:04.432Z,22.40
2022-11-20T02:46:30.952Z,23.38
2022-11-20T02:48:56.707Z,24.15
2022-11-20T02:51:22.784Z,24.60
2022-11-20T02:53:48.701Z,26.88
2022-11-20T02:56:14.671Z,21.60
2022-11-20T02:58:40.355Z,19.85
2022-11-20T03:01:06.082Z,23.83
2022-11-20T03:03:31.999Z,20.77
2022-11-20T03:05:59.715Z,24.73
2022-11-20T03:08:26.149Z,22.88
2022-11-20T03:10:52.199Z,20.30
2022-11-20T03:13:18.013Z,21.50
2022-11-20T03:15:43.700Z,23.27
2022-11-20T03:18:09.387Z,24.15
2022-11-20T03:20:35.117Z,23.63
2022-11-20T03:23:01.592Z,21.73
2022-11-20T03:25:27.657Z,26.25
2022-11-20T03:27:54.361Z,19.60
2022-11-20T03:30:20.136Z,22.77
2022-11-20T03:32:46.319Z,18.45
2022-11-20T03:35:11.993Z,24.80
2022-11-20T03:37:37.648Z,25.02
2022-11-20T03:40:04.221Z,19.80
2022-11-20T03:42:48.076Z,19.40
2022-11-20T03:45:15.807Z,21.83
2022-11-20T03:47:42.133Z,20.40
2022-11-20T03:50:09.364Z,25.63
2022-11-20T03:52:35.033Z,19.55
2022-11-20T03:55:00.876Z,23.25
2022-11-20T03:57:26.681Z,20.65
2022-11-20T03:59:52.376Z,23.45
2022-11-20T04:02:18.426Z,21.58
2022-11-20T04:04:44.502Z,19.45
2022-11-20T04:07:10.252Z,21.15
2022-11-20T04:09:36.031Z,24.02
2022-11-20T04:12:01.721Z,22.27
2022-11-20T04:14:27.384Z,19.85
2022-11-20T04:16:53.242Z,19.33
2022-11-20T04:19:19.355Z,20.60
2022-11-20T04:21:45.679Z,22.25
2022-11-20T04:24:11.928Z,18.38
2022-11-20T04:26:38.691Z,21.95
2022-11-20T04:29:04.406Z,23.70
2022-11-20T04:31:33.137Z,19.05
2022-11-20T04:34:04.204Z,19.98
2022-11-20T04:36:30.718Z,56.80
2022-11-20T04:39:02.012Z,43.95
2022-11-20T04:41:30.472Z,27.63
2022-11-20T04:44:03.281Z,30.05
2022-11-20T04:46:31.192Z,22.48
2022-11-20T04:48:57.154Z,26.27
2022-11-20T04:51:23.110Z,21.90
2022-11-20T04:53:49.069Z,23.25
2022-11-20T04:56:15.553Z,19.70
2022-11-20T04:58:41.992Z,19.10
2022-11-20T05:01:12.226Z,25.88
2022-11-20T05:03:42.305Z,23.35
2022-11-20T05:06:10.301Z,17.95
2022-11-20T05:08:36.013Z,25.20
2022-11-20T05:11:10.303Z,32.08
2022-11-20T05:13:37.113Z,37.22
2022-11-20T05:16:09.063Z,28.52
2022-11-20T05:18:35.767Z,27.73
2022-11-20T05:21:01.887Z,22.55
2022-11-20T05:23:29.099Z,23.77
2022-11-20T05:25:59.167Z,19.20
2022-11-20T05:28:27.500Z,19.13
2022-11-20T05:30:53.270Z,20.13
2022-11-20T05:33:19.332Z,18.50
2022-11-20T05:35:45.026Z,22.80
2022-11-20T05:38:10.704Z,20.85
2022-11-20T05:40:36.416Z,17.10
2022-11-20T05:43:02.607Z,18.70
2022-11-20T05:45:28.542Z,20.77
2022-11-20T05:47:57.500Z,18.70
2022-11-20T05:50:23.190Z,19.45
2022-11-20T05:52:48.855Z,19.15
2022-11-20T05:55:14.764Z,18.45
2022-11-20T05:57:40.447Z,19.63
2022-11-20T06:00:06.833Z,18.85
2022-11-20T06:02:35.472Z,19.38
2022-11-20T06:05:01.244Z,18.20
2022-11-20T06:07:26.968Z,18.85
2022-11-20T06:09:52.697Z,14.80
2022-11-20T06:12:18.405Z,17.48
2022-11-20T06:14:44.085Z,17.92
2022-11-20T06:17:10.119Z,19.88
2022-11-20T06:19:35.780Z,18.00
2022-11-20T06:22:01.445Z,19.90
2022-11-20T06:24:27.216Z,21.38
2022-11-20T06:26:52.992Z,17.35
2022-11-20T06:29:18.775Z,17.05
2022-11-20T06:31:44.896Z,18.58
2022-11-20T06:34:11.905Z,17.13
2022-11-20T06:36:37.730Z,19.55
2022-11-20T06:39:03.727Z,16.85
2022-11-20T06:41:29.398Z,17.92
2022-11-20T06:43:55.413Z,19.50
2022-11-20T06:46:21.840Z,18.70
2022-11-20T06:48:48.416Z,17.90
2022-11-20T06:51:14.569Z,18.02
2022-11-20T06:53:40.349Z,19.40
2022-11-20T06:56:07.645Z,18.45
2022-11-20T06:58:34.809Z,21.00
2022-11-20T07:01:02.073Z,19.50
2022-11-20T07:03:27.903Z,20.30
2022-11-20T07:05:57.854Z,19.30
2022-11-20T07:08:24.760Z,19.27
2022-11-20T07:10:50.813Z,17.95
2022-11-20T07:13:16.656Z,23.77
2022-11-20T07:15:42.330Z,16.58
2022-11-20T07:18:08.112Z,17.50
2022-11-20T07:20:33.793Z,14.68
2022-11-20T07:22:59.667Z,17.55
2022-11-20T07:25:26.784Z,16.55
2022-11-20T07:27:52.669Z,18.80
2022-11-20T07:30:18.737Z,18.35
2022-11-20T07:32:50.654Z,17.95
2022-11-20T07:35:16.525Z,18.88
2022-11-20T07:37:42.208Z,17.48
2022-11-20T07:40:08.194Z,20.80
2022-11-20T07:42:33.876Z,30.30
2022-11-20T07:44:59.700Z,31.63
2022-11-20T07:47:25.404Z,26.08
2022-11-20T07:49:51.084Z,23.10
2022-11-20T07:52:16.765Z,22.50
2022-11-20T07:54:42.436Z,24.60
2022-11-20T07:57:08.124Z,26.10
2022-11-20T07:59:33.832Z,22.90
2022-11-20T08:01:59.486Z,17.10
2022-11-20T08:04:25.190Z,17.65
2022-11-20T08:06:52.749Z,40.75
2022-11-20T08:09:18.595Z,43.15
2022-11-20T08:12:02.846Z,49.72
2022-11-20T08:14:28.545Z,33.38
2022-11-20T08:16:54.241Z,22.42
2022-11-20T08:19:20.792Z,25.77
2022-11-20T08:21:46.661Z,19.83
2022-11-20T08:24:12.447Z,22.30
2022-11-20T08:26:39.630Z,19.27
2022-11-20T08:29:06.643Z,16.35
2022-11-20T08:31:32.769Z,33.03
2022-11-20T08:33:58.449Z,38.65
2022-11-20T08:36:25.449Z,31.35
2022-11-20T08:38:53.421Z,25.10
2022-11-20T08:41:28.417Z,21.63
2022-11-20T08:43:58.090Z,17.38
2022-11-20T08:46:34.445Z,17.23
2022-11-20T08:49:00.347Z,16.00
2022-11-20T08:51:26.036Z,14.63
2022-11-20T08:53:51.712Z,13.23
2022-11-20T08:56:18.089Z,13.43
2022-11-20T08:59:15.439Z,14.13
2022-11-20T09:01:29.804Z,13.32
2022-11-20T09:03:57.149Z,13.02
2022-11-20T09:06:22.806Z,17.40
2022-11-20T09:08:52.651Z,18.38
2022-11-20T09:11:18.390Z,19.30
2022-11-20T09:13:44.150Z,19.17
2022-11-20T09:17:21.985Z,30.33
2022-11-20T09:19:57.706Z,27.10
2022-11-20T09:22:23.360Z,26.88
2022-11-20T09:24:49.283Z,28.48
2022-11-20T09:27:20.114Z,30.00
2022-11-20T09:29:45.770Z,35.53
2022-11-20T09:32:11.486Z,22.05
2022-11-20T09:34:37.190Z,16.13
2022-11-20T09:37:06.246Z,17.80
2022-11-20T09:39:33.945Z,17.25
2022-11-20T09:42:04.726Z,19.52
2022-11-20T09:44:50.083Z,19.98
2022-11-20T09:47:54.889Z,21.95
2022-11-20T09:50:28.022Z,15.90
2022-11-20T09:53:16.799Z,20.63
2022-11-20T09:55:42.736Z,21.88
2022-11-20T09:58:29.620Z,26.08
2022-11-20T10:01:01.230Z,21.60
2022-11-20T10:03:57.098Z,20.45
2022-11-20T10:06:30.406Z,18.48
2022-11-20T10:09:22.604Z,21.73
2022-11-20T10:12:11.704Z,21.13
2022-11-20T10:15:04.774Z,17.92
2022-11-20T10:17:57.842Z,20.20
2022-11-20T10:20:39.073Z,18.85
2022-11-20T10:23:25.983Z,21.92
2022-11-20T10:26:12.505Z,18.30
2022-11-20T10:29:08.829Z,18.95
2022-11-20T10:31:38.372Z,24.55
2022-11-20T10:34:26.969Z,20.77
2022-11-20T10:37:03.827Z,18.08
2022-11-20T10:39:51.134Z,20.55
2022-11-20T10:42:30.266Z,18.52
2022-11-20T10:45:09.453Z,18.70
2022-11-20T10:47:36.093Z,18.40
2022-11-20T10:50:06.277Z,15.98
2022-11-20T10:52:56.478Z,19.05
2022-11-20T10:55:33.161Z,17.15
2022-11-20T10:58:13.584Z,14.82
2022-11-20T11:00:39.660Z,16.30
2022-11-20T11:03:24.081Z,13.98
2022-11-20T11:06:05.788Z,8.73
2022-11-20T11:08:37.763Z,8.02
2022-11-20T11:11:20.578Z,3.88
2022-11-20T11:13:46.274Z,4.53
2022-11-20T11:16:26.616Z,2.88
2022-11-20T11:19:07.207Z,3.30
2022-11-20T11:21:32.992Z,3.55
2022-11-20T11:24:26.770Z,2.83
2022-11-20T11:26:59.349Z,2.88
2022-11-20T11:29:28.328Z,6.68
2022-11-20T11:32:21.894Z,10.02
2022-11-20T11:35:18.670Z,11.10
2022-11-20T11:37:47.362Z,11.93
2022-11-20T11:40:23.790Z,11.55
2022-11-20T11:43:38.099Z,10.18
2022-11-20T11:46:34.320Z,9.23
2022-11-20T11:49:09.202Z,10.07
2022-11-20T11:51:46.754Z,10.57
2022-11-20T11:54:28.503Z,9.77
2022-11-20T11:56:54.611Z,10.90
2022-11-20T11:59:46.154Z,8.77
2022-11-20T12:02:29.943Z,9.10
2022-11-20T12:05:09.005Z,7.63
2022-11-20T12:07:48.100Z,9.82
2022-11-20T12:10:32.533Z,9.48
2022-11-20T12:13:13.769Z,10.10
2022-11-20T12:15:43.295Z,9.75
2022-11-20T12:18:16.001Z,10.60
2022-11-20T12:20:53.488Z,9.15
2022-11-20T12:23:42.804Z,8.00
2022-11-20T12:26:38.034Z,9.43
2022-11-20T12:29:15.523Z,9.43
2022-11-20T12:31:55.463Z,11.15
2022-11-20T12:37:16.332Z,7.63
2022-11-20T12:39:43.370Z,10.35
2022-11-20T12:42:48.634Z,9.93
2022-11-20T12:45:29.603Z,7.90
2022-11-20T12:48:22.694Z,8.70
2022-11-20T12:51:18.908Z,8.93
2022-11-20T12:54:17.961Z,10.60
2022-11-20T12:56:51.239Z,8.20
2022-11-20T12:59:38.818Z,6.35
2022-11-20T13:02:30.728Z,7.63
2022-11-20T13:05:19.132Z,6.72
2022-11-20T13:07:45.236Z,8.85
2022-11-20T13:10:36.724Z,9.52
2022-11-20T13:13:17.326Z,6.95
2022-11-20T13:15:56.179Z,7.13
2022-11-20T13:18:22.002Z,6.53
2022-11-20T13:20:49.734Z,6.78
2022-11-20T13:26:02.777Z,6.97
2022-11-20T13:28:30.346Z,5.95
2022-11-20T13:30:58.337Z,7.63
2022-11-20T13:33:29.650Z,5.65
2022-11-20T13:36:01.790Z,6.40
2022-11-20T13:38:33.734Z,7.03
2022-11-20T13:41:24.101Z,7.38
2022-11-20T13:43:50.221Z,9.18
2022-11-20T13:46:16.042Z,9.13
2022-11-20T13:48:45.461Z,7.53
2022-11-20T13:51:29.301Z,8.63
2022-11-20T13:54:21.282Z,7.78
2022-11-20T13:57:14.258Z,9.30
2022-11-20T14:00:01.760Z,8.48
2022-11-20T14:02:30.192Z,7.63
2022-11-20T14:04:59.024Z,6.47
2022-11-20T14:07:39.676Z,7.35
2022-11-20T14:10:06.294Z,8.18
2022-11-20T14:12:33.861Z,9.15
2022-11-20T14:15:00.296Z,7.97
2022-11-20T14:17:28.760Z,9.88
2022-11-20T14:19:57.974Z,7.68
2022-11-20T14:22:26.491Z,7.88
2022-11-20T14:25:06.187Z,10.00
2022-11-20T14:27:36.634Z,9.40
2022-11-20T14:30:03.504Z,9.27
2022-11-20T14:32:31.318Z,8.70
2022-11-20T14:37:29.895Z,8.98
2022-11-20T14:39:56.561Z,10.70
2022-11-20T14:42:25.116Z,10.05
2022-11-20T14:44:53.157Z,10.13
2022-11-20T14:47:22.415Z,9.93
2022-11-20T14:49:49.864Z,10.15
2022-11-20T14:52:23.895Z,11.73
2022-11-20T14:54:51.625Z,10.70
2022-11-20T14:59:49.091Z,11.23
2022-11-20T15:02:15.161Z,10.10
2022-11-20T15:04:49.030Z,10.23
2022-11-20T15:10:00.975Z,13.65
2022-11-20T15:12:27.160Z,16.08
2022-11-20T15:14:52.909Z,14.10
2022-11-20T15:17:18.581Z,11.77
2022-11-20T15:19:44.270Z,13.52
2022-11-20T15:22:16.720Z,12.65
2022-11-20T15:24:42.711Z,11.02
2022-11-20T15:27:09.736Z,12.73
2022-11-20T15:29:35.418Z,8.93
2022-11-20T15:32:01.148Z,11.90
2022-11-20T15:34:27.358Z,10.77
2022-11-20T15:36:54.566Z,11.00
2022-11-20T15:39:20.656Z,11.90
2022-11-20T15:41:47.074Z,10.45
2022-11-20T15:44:12.762Z,14.68
2022-11-20T15:46:42.613Z,14.38
2022-11-20T15:49:13.985Z,12.05
2022-11-20T15:51:46.514Z,12.15
2022-11-20T15:54:13.565Z,11.07
2022-11-20T15:56:39.269Z,9.07
2022-11-20T15:59:04.939Z,9.35
2022-11-20T16:01:30.890Z,10.30
2022-11-20T16:03:56.695Z,11.52
2022-11-20T16:06:22.402Z,11.88
2022-11-20T16:08:48.099Z,9.90
2022-11-20T16:11:15.611Z,11.60
2022-11-20T16:14:00.334Z,11.50
2022-11-20T16:16:30.343Z,12.32
2022-11-20T16:18:56.953Z,12.13
2022-11-20T16:21:31.325Z,15.40
2022-11-20T16:24:01.785Z,15.43
2022-11-20T16:26:27.957Z,11.73
2022-11-20T16:28:54.129Z,21.38
2022-11-20T16:31:20.493Z,27.40
2022-11-20T16:34:02.568Z,25.13
2022-11-20T16:36:30.115Z,27.92
2022-11-20T16:39:00.874Z,21.30
2022-11-20T16:41:29.890Z,20.13
2022-11-20T16:43:58.128Z,23.50
2022-11-20T16:46:26.045Z,21.88
2022-11-20T16:48:55.873Z,30.52
2022-11-20T16:51:23.340Z,26.77
2022-11-20T16:53:52.774Z,23.55
2022-11-20T16:56:24.225Z,25.98
2022-11-20T16:58:50.594Z,20.30
2022-11-20T17:01:20.389Z,17.40
2022-11-20T17:03:53.159Z,17.77
2022-11-20T17:06:24.864Z,14.43
2022-11-20T17:08:50.927Z,12.93
2022-11-20T17:11:18.565Z,16.05
2022-11-20T17:13:45.044Z,14.18
2022-11-20T17:16:13.776Z,13.43
2022-11-20T17:18:40.248Z,19.52
2022-11-20T17:21:06.713Z,17.30
2022-11-20T17:23:34.559Z,18.83
2022-11-20T17:26:05.512Z,20.10
2022-11-20T17:28:31.733Z,20.65
2022-11-20T17:31:16.717Z,17.73
2022-11-20T17:33:44.590Z,18.20
2022-11-20T17:36:12.184Z,26.65
2022-11-20T17:38:37.970Z,23.80
2022-11-20T17:41:07.814Z,17.75
2022-11-20T17:43:36.379Z,19.48
2022-11-20T17:46:09.030Z,25.35
2022-11-20T17:48:35.357Z,26.35
2022-11-20T17:51:03.376Z,26.85
2022-11-20T17:53:32.797Z,22.48
2022-11-20T17:56:17.000Z,26.15
2022-11-20T17:58:42.805Z,23.20
2022-11-20T18:01:09.273Z,22.33
2022-11-20T18:03:35.737Z,29.67
2022-11-20T18:06:13.294Z,19.83
2022-11-20T18:08:39.349Z,20.08
2022-11-20T18:11:18.652Z,17.38
2022-11-20T18:14:04.917Z,15.77
2022-11-20T18:16:33.604Z,19.15
2022-11-20T18:18:59.565Z,22.58
2022-11-20T18:21:27.352Z,25.73
2022-11-20T18:23:54.222Z,20.52
2022-11-20T18:26:20.096Z,21.70
2022-11-20T18:28:46.108Z,21.50
2022-11-20T18:31:13.237Z,20.10
2022-11-20T18:33:39.195Z,23.67
2022-11-20T18:36:09.687Z,22.17
2022-11-20T18:38:35.805Z,22.20
2022-11-20T18:41:04.001Z,20.95
2022-11-20T18:43:49.371Z,22.25
2022-11-20T18:46:15.057Z,24.08
2022-11-20T18:48:41.239Z,25.80
2022-11-20T18:51:07.441Z,26.75
2022-11-20T18:53:35.989Z,28.38
2022-11-20T18:56:05.535Z,28.40
2022-11-20T18:58:31.298Z,29.27
2022-11-20T19:01:04.731Z,31.65
2022-11-20T19:03:30.433Z,34.13
2022-11-20T19:05:56.102Z,31.95
2022-11-20T19:08:21.810Z,37.45
2022-11-20T19:10:47.498Z,32.60
2022-11-20T19:13:13.198Z,29.38
2022-11-20T19:15:39.336Z,36.78
2022-11-20T19:18:05.964Z,46.60
2022-11-20T19:20:31.952Z,70.72
2022-11-20T19:22:57.713Z,52.05
2022-11-20T19:25:23.425Z,36.25
2022-11-20T19:27:49.125Z,31.98
2022-11-20T19:30:14.898Z,24.63
2022-11-20T19:32:40.575Z,23.48
2022-11-20T19:35:06.640Z,25.92
2022-11-20T19:37:33.542Z,23.40
2022-11-20T19:40:00.506Z,22.05
2022-11-20T19:42:26.239Z,20.42
2022-11-20T19:44:52.481Z,22.17
2022-11-20T19:47:18.140Z,21.00
2022-11-20T19:49:43.900Z,16.30
2022-11-20T19:52:10.056Z,16.92
2022-11-20T19:54:35.742Z,19.50
2022-11-20T19:57:01.455Z,19.98
2022-11-20T19:59:27.336Z,15.55
2022-11-20T20:01:53.093Z,17.02
2022-11-20T20:04:19.497Z,17.50
2022-11-20T20:06:45.201Z,14.45
2022-11-20T20:09:12.500Z,14.18
2022-11-20T20:11:39.071Z,13.07
2022-11-20T20:14:07.842Z,13.68
2022-11-20T20:16:34.528Z,14.82
2022-11-20T20:19:02.478Z,15.70
2022-11-20T20:21:29.778Z,17.27
2022-11-20T20:23:56.148Z,12.75
2022-11-20T20:26:26.751Z,17.00
2022-11-20T20:28:52.840Z,12.75
2022-11-20T20:31:20.974Z,15.00
2022-11-20T20:33:46.930Z,13.10
2022-11-20T20:36:15.616Z,13.63
2022-11-20T20:38:42.673Z,11.32
2022-11-20T20:41:08.380Z,8.75
2022-11-20T20:43:55.015Z,8.70
2022-11-20T20:46:20.800Z,9.13
2022-11-20T20:48:51.516Z,8.73
2022-11-20T20:51:19.966Z,8.05
2022-11-20T20:53:45.645Z,4.28
2022-11-20T20:56:11.369Z,5.03
2022-11-20T20:58:37.137Z,4.57
2022-11-20T21:01:06.159Z,3.67
2022-11-20T21:03:33.353Z,5.15
2022-11-20T21:05:59.152Z,5.22
2022-11-20T21:08:25.693Z,3.40
2022-11-20T21:10:53.512Z,4.70
2022-11-20T21:13:21.090Z,4.00
2022-11-20T21:15:49.752Z,4.65
2022-11-20T21:18:17.189Z,4.22
2022-11-20T21:21:03.156Z,4.45
2022-11-20T21:28:20.072Z,3.58
2022-11-20T21:30:46.535Z,3.08
2022-11-20T21:33:12.646Z,2.88
2022-11-20T21:35:38.369Z,4.85
2022-11-20T21:38:04.734Z,2.28
2022-11-20T21:40:30.393Z,3.65
2022-11-20T21:42:56.082Z,2.83
2022-11-20T21:45:21.924Z,3.47
2022-11-20T21:47:51.068Z,2.45
2022-11-20T21:50:17.887Z,2.25
2022-11-20T21:52:43.905Z,2.78
2022-11-20T21:55:10.248Z,2.40
2022-11-20T21:57:35.930Z,3.15
2022-11-20T22:00:03.689Z,2.97
2022-11-20T22:02:29.377Z,4.10
2022-11-20T22:04:55.252Z,2.33
2022-11-20T22:07:20.954Z,2.80
2022-11-20T22:09:46.651Z,4.25
2022-11-20T22:12:12.355Z,2.95
2022-11-20T22:14:38.090Z,2.75
2022-11-20T22:17:03.827Z,4.10
2022-11-20T22:19:29.524Z,3.28
2022-11-20T22:21:55.266Z,3.03
2022-11-20T22:24:22.650Z,4.22
2022-11-20T22:26:49.328Z,3.88
2022-11-20T22:29:17.579Z,4.85
2022-11-20T22:31:43.733Z,2.38
2022-11-20T22:34:11.816Z,4.53
2022-11-20T22:36:37.978Z,3.33
2022-11-20T22:39:04.691Z,2.33
2022-11-20T22:41:31.064Z,4.15
2022-11-20T22:44:01.872Z,4.43
2022-11-20T22:46:30.202Z,2.00
2022-11-20T22:49:00.758Z,3.75
2022-11-20T22:51:29.049Z,2.85
2022-11-20T22:53:55.086Z,1.60
2022-11-20T22:56:21.839Z,3.15
2022-11-20T22:58:50.204Z,1.92
2022-11-20T23:01:21.084Z,2.30
2022-11-20T23:03:51.841Z,1.75
2022-11-20T23:06:19.268Z,3.03
2022-11-20T23:08:45.350Z,1.77
2022-11-20T23:11:16.190Z,2.42
2022-11-20T23:13:43.089Z,2.38
2022-11-20T23:16:11.536Z,2.08
2022-11-20T23:18:37.287Z,1.60
2022-11-20T23:21:07.946Z,2.30
2022-11-20T23:23:33.640Z,1.48
2022-11-20T23:26:04.069Z,1.88
2022-11-20T23:28:29.843Z,2.10
2022-11-20T23:30:56.554Z,1.85
2022-11-20T23:33:22.230Z,1.77
2022-11-20T23:35:48.232Z,2.60
2022-11-20T23:38:13.906Z,1.95
2022-11-20T23:40:41.422Z,1.08
2022-11-20T23:45:43.627Z,1.35
2022-11-20T23:48:09.310Z,1.67
2022-11-20T23:50:35.465Z,2.05
2022-11-20T23:53:01.149Z,2.47
2022-11-20T23:55:27.221Z,2.78
2022-11-20T23:57:52.954Z,1.88
